< < Back
Terminal Aerodrome Forecast


Current Version              Previous Versions:   1  2  3  4  5  6  7  8  9  

Terminal Aerodrome Forecast

918
FTUS42 KTAE 291120
TAFABY
TAF
KABY 291120Z 2912/3012 21003KT P6SM FEW040
     FM291800 29005KT P6SM VCTS SCT040CB
      TEMPO 2918/2922 VRB15G25KT 2SM +TSRA BKN030CB
     FM300100 28005KT P6SM BKN040=

Latest METAR

878
SAUS70 KWBC 292156
MTRABY
METAR KABY 292153Z 31007KT 10SM BKN060 38/21 A2989 RMK AO2 LTG DSNT E
AND SE SLP120 T03780211


USA.gov is the U.S. government's official web portal to all federal, state and local government web resources and services.